createdAt,value
2022-09-06T00:01:53.664Z,100.00
2022-09-06T00:04:20.349Z,100.00
2022-09-06T00:06:46.957Z,100.00
2022-09-06T00:09:13.728Z,100.00
2022-09-06T00:11:40.340Z,100.00
2022-09-06T00:14:06.999Z,100.00
2022-09-06T00:16:33.785Z,100.00
2022-09-06T00:19:02.970Z,100.00
2022-09-06T00:21:30.422Z,100.00
2022-09-06T00:23:57.146Z,100.00
2022-09-06T00:26:24.023Z,100.00
2022-09-06T00:28:50.818Z,100.00
2022-09-06T00:31:22.870Z,100.00
2022-09-06T00:33:50.161Z,100.00
2022-09-06T00:36:17.254Z,100.00
2022-09-06T00:38:44.095Z,100.00
2022-09-06T00:41:12.146Z,100.00
2022-09-06T00:43:39.143Z,100.00
2022-09-06T00:46:07.267Z,100.00
2022-09-06T00:48:34.504Z,100.00
2022-09-06T00:51:02.687Z,100.00
2022-09-06T00:53:31.072Z,100.00
2022-09-06T00:55:57.846Z,100.00
2022-09-06T00:58:25.401Z,100.00
2022-09-06T01:00:52.160Z,100.00
2022-09-06T01:03:19.663Z,100.00
2022-09-06T01:05:56.475Z,100.00
2022-09-06T01:08:35.300Z,100.00
2022-09-06T01:11:07.859Z,100.00
2022-09-06T01:13:34.625Z,100.00
2022-09-06T01:16:04.551Z,100.00
2022-09-06T01:18:43.457Z,100.00
2022-09-06T01:21:19.292Z,100.00
2022-09-06T01:24:04.503Z,100.00
2022-09-06T01:26:48.760Z,100.00
2022-09-06T01:29:35.642Z,100.00
2022-09-06T01:32:09.503Z,100.00
2022-09-06T01:34:39.854Z,100.00
2022-09-06T01:37:12.422Z,100.00
2022-09-06T01:39:40.429Z,100.00
2022-09-06T01:42:18.737Z,100.00
2022-09-06T01:45:05.624Z,100.00
2022-09-06T01:47:38.423Z,100.00
2022-09-06T01:50:24.204Z,100.00
2022-09-06T01:53:11.046Z,100.00
2022-09-06T01:55:47.258Z,100.00
2022-09-06T01:58:27.425Z,100.00
2022-09-06T02:01:00.437Z,100.00
2022-09-06T02:03:43.779Z,100.00
2022-09-06T02:06:13.347Z,100.00
2022-09-06T02:08:42.721Z,100.00
2022-09-06T02:11:09.557Z,100.00
2022-09-06T02:13:45.792Z,100.00
2022-09-06T02:16:14.318Z,100.00
2022-09-06T02:18:43.668Z,100.00
2022-09-06T02:21:13.424Z,100.00
2022-09-06T02:23:43.403Z,100.00
2022-09-06T02:26:13.854Z,100.00
2022-09-06T02:28:40.552Z,100.00
2022-09-06T02:31:30.410Z,100.00
2022-09-06T02:33:57.418Z,100.00
2022-09-06T02:36:24.530Z,100.00
2022-09-06T02:38:51.205Z,100.00
2022-09-06T02:41:19.647Z,100.00
2022-09-06T02:43:46.228Z,100.00
2022-09-06T02:46:12.882Z,100.00
2022-09-06T02:48:39.538Z,100.00
2022-09-06T02:51:06.864Z,100.00
2022-09-06T02:53:33.944Z,100.00
2022-09-06T02:56:00.554Z,100.00
2022-09-06T02:58:27.581Z,100.00
2022-09-06T03:00:54.528Z,100.00
2022-09-06T03:03:21.408Z,100.00
2022-09-06T03:05:52.037Z,100.00
2022-09-06T03:08:19.496Z,100.00
2022-09-06T03:10:50.027Z,100.00
2022-09-06T03:13:17.078Z,100.00
2022-09-06T03:15:44.387Z,100.00
2022-09-06T03:18:11.406Z,100.00
2022-09-06T03:20:38.145Z,100.00
2022-09-06T03:23:04.993Z,100.00
2022-09-06T03:25:31.722Z,100.00
2022-09-06T03:27:58.444Z,100.00
2022-09-06T03:30:25.266Z,100.00
2022-09-06T03:32:53.032Z,100.00
2022-09-06T03:35:20.256Z,100.00
2022-09-06T03:37:47.046Z,100.00
2022-09-06T03:40:13.816Z,100.00
2022-09-06T03:42:40.548Z,100.00
2022-09-06T03:45:07.854Z,100.00
2022-09-06T03:47:34.701Z,100.00
2022-09-06T03:50:01.453Z,100.00
2022-09-06T03:52:28.223Z,100.00
2022-09-06T03:54:55.054Z,100.00
2022-09-06T03:57:21.813Z,100.00
2022-09-06T03:59:48.706Z,100.00
2022-09-06T04:02:15.683Z,100.00
2022-09-06T04:04:42.566Z,100.00
2022-09-06T04:07:09.378Z,100.00
2022-09-06T04:09:36.336Z,100.00
2022-09-06T04:12:03.406Z,100.00
2022-09-06T04:14:30.457Z,100.00
2022-09-06T04:16:57.226Z,100.00
2022-09-06T04:19:24.023Z,100.00
2022-09-06T04:21:50.803Z,100.00
2022-09-06T04:24:17.843Z,100.00
2022-09-06T04:26:44.630Z,100.00
2022-09-06T04:29:11.384Z,100.00
2022-09-06T04:31:38.315Z,100.00
2022-09-06T04:34:05.151Z,100.00
2022-09-06T04:36:31.991Z,100.00
2022-09-06T04:38:58.802Z,100.00
2022-09-06T04:41:25.539Z,100.00
2022-09-06T04:43:52.325Z,100.00
2022-09-06T04:46:24.196Z,100.00
2022-09-06T04:48:52.816Z,100.00
2022-09-06T04:51:20.044Z,100.00
2022-09-06T04:53:46.870Z,100.00
2022-09-06T04:56:16.991Z,100.00
2022-09-06T04:58:45.331Z,100.00
2022-09-06T05:01:12.311Z,100.00
2022-09-06T05:03:39.290Z,100.00
2022-09-06T05:06:06.210Z,100.00
2022-09-06T05:08:32.991Z,100.00
2022-09-06T05:10:59.795Z,100.00
2022-09-06T05:13:26.742Z,100.00
2022-09-06T05:15:53.491Z,100.00
2022-09-06T05:18:20.255Z,100.00
2022-09-06T05:20:54.011Z,100.00
2022-09-06T05:23:21.886Z,100.00
2022-09-06T05:25:49.511Z,100.00
2022-09-06T05:28:17.402Z,100.00
2022-09-06T05:30:44.563Z,100.00
2022-09-06T05:33:13.932Z,100.00
2022-09-06T05:35:40.641Z,100.00
2022-09-06T05:38:07.417Z,100.00
2022-09-06T05:40:34.142Z,100.00
2022-09-06T05:43:00.847Z,100.00
2022-09-06T05:45:27.765Z,100.00
2022-09-06T05:47:54.580Z,100.00
2022-09-06T05:50:21.520Z,100.00
2022-09-06T05:52:48.287Z,100.00
2022-09-06T05:55:15.207Z,100.00
2022-09-06T05:57:41.920Z,100.00
2022-09-06T06:00:12.234Z,100.00
2022-09-06T06:02:40.202Z,100.00
2022-09-06T06:05:07.950Z,100.00
2022-09-06T06:07:35.115Z,100.00
2022-09-06T06:10:01.878Z,100.00
2022-09-06T06:12:28.646Z,100.00
2022-09-06T06:14:55.395Z,100.00
2022-09-06T06:17:22.268Z,100.00
2022-09-06T06:19:49.464Z,100.00
2022-09-06T06:22:16.312Z,100.00
2022-09-06T06:24:43.059Z,100.00
2022-09-06T06:27:09.778Z,100.00
2022-09-06T06:29:36.566Z,100.00
2022-09-06T06:32:03.538Z,82.85
2022-09-06T06:34:30.304Z,68.16
2022-09-06T06:36:58.238Z,58.51
2022-09-06T06:39:25.112Z,54.09
2022-09-06T06:41:53.339Z,51.64
2022-09-06T06:44:20.132Z,49.56
2022-09-06T06:46:46.857Z,46.32
2022-09-06T06:49:13.601Z,43.40
2022-09-06T06:51:40.581Z,42.04
2022-09-06T06:54:07.386Z,40.46
2022-09-06T06:56:37.742Z,41.31
2022-09-06T06:59:07.977Z,39.87
2022-09-06T07:01:36.376Z,39.59
2022-09-06T07:04:04.508Z,39.20
2022-09-06T07:09:19.687Z,37.15
2022-09-06T07:11:48.947Z,35.39
2022-09-06T07:14:19.236Z,35.63
2022-09-06T07:16:46.347Z,35.00
2022-09-06T07:22:04.405Z,34.43
2022-09-06T07:24:32.196Z,34.10
2022-09-06T07:29:45.814Z,34.57
2022-09-06T07:32:12.766Z,34.04
2022-09-06T07:34:39.860Z,35.06
2022-09-06T07:37:06.675Z,34.50
2022-09-06T07:39:33.514Z,33.88
2022-09-06T07:42:00.343Z,33.17
2022-09-06T07:44:29.026Z,33.85
2022-09-06T07:55:16.306Z,32.83
2022-09-06T07:57:43.075Z,32.75
2022-09-06T08:00:11.768Z,31.95
2022-09-06T08:02:40.979Z,30.63
2022-09-06T08:10:42.143Z,30.01
2022-09-06T08:13:08.907Z,30.36
2022-09-06T08:15:35.648Z,31.09
2022-09-06T08:18:02.347Z,30.59
2022-09-06T08:20:29.160Z,30.99
2022-09-06T08:22:55.896Z,29.53
2022-09-06T08:25:23.077Z,29.57
2022-09-06T08:27:49.843Z,29.20
2022-09-06T08:30:16.671Z,29.27
2022-09-06T08:32:43.426Z,29.11
2022-09-06T08:35:10.731Z,28.86
2022-09-06T08:37:37.505Z,29.89
2022-09-06T08:40:04.545Z,29.78
2022-09-06T08:42:32.147Z,30.29
2022-09-06T08:45:00.667Z,30.31
2022-09-06T08:47:27.571Z,30.45
2022-09-06T08:50:00.786Z,29.03
2022-09-06T08:52:33.902Z,29.38
2022-09-06T08:55:12.616Z,29.26
2022-09-06T08:57:51.619Z,28.80
2022-09-06T09:00:20.574Z,31.20
2022-09-06T09:02:53.413Z,31.66
2022-09-06T09:05:27.272Z,31.34
2022-09-06T09:08:24.988Z,30.13
2022-09-06T09:10:59.625Z,30.18
2022-09-06T09:13:44.273Z,30.81
2022-09-06T09:16:11.655Z,31.61
2022-09-06T09:18:41.321Z,31.06
2022-09-06T09:21:09.999Z,31.71
2022-09-06T09:23:37.156Z,33.20
2022-09-06T09:26:09.736Z,32.83
2022-09-06T09:28:36.742Z,33.40
2022-09-06T09:31:03.614Z,32.74
2022-09-06T09:33:35.773Z,32.42
2022-09-06T09:36:07.651Z,33.57
2022-09-06T09:38:46.398Z,34.11
2022-09-06T09:41:34.358Z,33.23
2022-09-06T09:44:05.116Z,33.09
2022-09-06T09:46:36.907Z,33.47
2022-09-06T09:49:29.618Z,34.38
2022-09-06T09:52:12.766Z,34.02
2022-09-06T09:54:45.041Z,34.44
2022-09-06T09:57:14.476Z,33.72
2022-09-06T09:59:46.405Z,34.21
2022-09-06T10:02:18.681Z,34.47
2022-09-06T10:04:47.068Z,33.90
2022-09-06T10:07:16.404Z,34.02
2022-09-06T10:09:48.760Z,33.94
2022-09-06T10:12:30.192Z,34.07
2022-09-06T10:14:58.035Z,34.07
2022-09-06T10:17:51.967Z,34.38
2022-09-06T10:20:19.254Z,34.94
2022-09-06T10:22:59.293Z,34.90
2022-09-06T10:25:49.042Z,34.10
2022-09-06T10:28:30.264Z,33.34
2022-09-06T10:31:08.589Z,32.93
2022-09-06T10:33:59.925Z,33.64
2022-09-06T10:36:33.872Z,33.27
2022-09-06T10:39:15.392Z,33.47
2022-09-06T10:41:57.354Z,33.80
2022-09-06T10:44:47.508Z,33.17
2022-09-06T10:47:16.245Z,32.21
2022-09-06T10:49:50.937Z,32.70
2022-09-06T10:52:25.823Z,33.66
2022-09-06T10:54:57.453Z,32.96
2022-09-06T11:00:24.707Z,33.16
2022-09-06T11:05:45.549Z,33.09
2022-09-06T11:11:19.862Z,31.74
2022-09-06T11:13:47.538Z,31.95
2022-09-06T11:16:33.399Z,32.58
2022-09-06T11:19:12.393Z,33.18
2022-09-06T11:21:51.963Z,33.65
2022-09-06T11:24:34.423Z,33.89
2022-09-06T11:27:11.720Z,32.67
2022-09-06T11:29:43.177Z,31.49
2022-09-06T11:32:28.100Z,31.96
2022-09-06T11:34:57.859Z,32.13
2022-09-06T11:37:36.271Z,32.80
2022-09-06T11:42:55.721Z,34.06
2022-09-06T11:45:42.986Z,33.96
2022-09-06T11:48:34.572Z,32.83
2022-09-06T11:51:06.934Z,33.37
2022-09-06T11:53:48.669Z,33.09
2022-09-06T11:56:30.580Z,33.49
2022-09-06T11:59:11.414Z,32.92
2022-09-06T12:01:39.355Z,32.72
2022-09-06T12:04:08.645Z,32.92
2022-09-06T12:06:43.175Z,33.71
2022-09-06T12:09:29.526Z,33.64
2022-09-06T12:11:56.872Z,33.22
2022-09-06T12:14:32.415Z,33.79
2022-09-06T12:16:59.366Z,33.12
2022-09-06T12:19:58.812Z,34.26
2022-09-06T12:22:36.170Z,33.89
2022-09-06T12:25:08.028Z,33.12
2022-09-06T12:27:52.695Z,33.94
2022-09-06T12:30:37.624Z,33.29
2022-09-06T12:33:13.934Z,33.37
2022-09-06T12:35:56.892Z,33.62
2022-09-06T12:38:25.784Z,33.04
2022-09-06T12:40:58.618Z,32.61
2022-09-06T12:43:26.163Z,32.01
2022-09-06T12:45:53.128Z,31.87
2022-09-06T12:48:31.220Z,32.33
2022-09-06T12:51:04.175Z,33.03
2022-09-06T12:53:31.909Z,32.68
2022-09-06T12:56:12.607Z,32.75
2022-09-06T12:58:39.787Z,33.03
2022-09-06T13:01:26.692Z,33.51
2022-09-06T13:04:01.180Z,33.70
2022-09-06T13:06:28.294Z,33.40
2022-09-06T13:08:58.924Z,33.64
2022-09-06T13:11:31.714Z,33.42
2022-09-06T13:13:58.859Z,33.65
2022-09-06T13:16:26.835Z,33.73
2022-09-06T13:18:54.028Z,33.88
2022-09-06T13:21:29.755Z,34.02
2022-09-06T13:23:59.196Z,34.07
2022-09-06T13:26:32.539Z,33.63
2022-09-06T13:29:09.143Z,33.89
2022-09-06T13:31:35.804Z,33.82
2022-09-06T13:34:02.639Z,34.46
2022-09-06T13:36:31.123Z,34.46
2022-09-06T13:38:58.152Z,33.47
2022-09-06T13:41:24.746Z,33.49
2022-09-06T13:44:00.744Z,34.52
2022-09-06T13:46:27.565Z,34.88
2022-09-06T13:48:54.794Z,35.29
2022-09-06T13:51:21.745Z,35.05
2022-09-06T13:53:49.124Z,34.90
2022-09-06T13:56:16.957Z,35.36
2022-09-06T13:58:43.971Z,34.78
2022-09-06T14:01:11.708Z,35.96
2022-09-06T14:03:40.609Z,35.24
2022-09-06T14:06:08.348Z,35.52
2022-09-06T14:09:02.912Z,35.82
2022-09-06T14:11:24.521Z,36.12
2022-09-06T14:13:51.208Z,36.23
2022-09-06T14:16:17.886Z,36.53
2022-09-06T14:18:45.304Z,35.26
2022-09-06T14:21:12.125Z,35.96
2022-09-06T14:23:38.977Z,36.34
2022-09-06T14:26:05.894Z,36.16
2022-09-06T14:28:34.025Z,36.17
2022-09-06T14:31:15.187Z,36.42
2022-09-06T14:33:42.278Z,36.71
2022-09-06T14:36:11.641Z,36.43
2022-09-06T14:38:40.211Z,36.88
2022-09-06T14:41:08.792Z,36.90
2022-09-06T14:43:36.830Z,36.36
2022-09-06T14:46:09.374Z,36.64
2022-09-06T14:48:42.086Z,36.57
2022-09-06T14:51:12.694Z,37.59
2022-09-06T14:53:44.892Z,37.74
2022-09-06T14:56:12.831Z,37.09
2022-09-06T14:58:40.784Z,36.72
2022-09-06T15:01:08.957Z,35.64
2022-09-06T15:03:36.397Z,36.11
2022-09-06T15:06:04.197Z,36.48
2022-09-06T15:08:30.984Z,36.76
2022-09-06T15:10:58.602Z,37.02
2022-09-06T15:13:27.111Z,38.03
2022-09-06T15:15:55.456Z,37.33
2022-09-06T15:18:23.551Z,36.38
2022-09-06T15:20:50.753Z,36.94
2022-09-06T15:23:25.642Z,37.42
2022-09-06T15:25:54.246Z,37.32
2022-09-06T15:28:21.468Z,38.44
2022-09-06T15:30:49.251Z,37.10
2022-09-06T15:33:16.203Z,37.35
2022-09-06T15:35:43.625Z,37.18
2022-09-06T15:38:12.123Z,37.33
2022-09-06T15:40:39.226Z,37.78
2022-09-06T15:43:06.522Z,39.31
2022-09-06T15:45:47.843Z,39.00
2022-09-06T15:48:17.797Z,38.76
2022-09-06T15:50:51.676Z,39.45
2022-09-06T15:53:19.777Z,39.28
2022-09-06T15:55:58.895Z,39.01
2022-09-06T15:58:27.255Z,39.02
2022-09-06T16:01:21.775Z,39.44
2022-09-06T16:03:49.528Z,39.37
2022-09-06T16:06:27.423Z,39.68
2022-09-06T16:09:00.151Z,40.14
2022-09-06T16:11:28.422Z,39.64
2022-09-06T16:13:55.475Z,40.03
2022-09-06T16:16:22.918Z,39.75
2022-09-06T16:18:49.831Z,40.62
2022-09-06T16:21:19.777Z,40.05
2022-09-06T16:23:56.989Z,39.28
2022-09-06T16:26:24.827Z,39.78
2022-09-06T16:28:52.589Z,39.82
2022-09-06T16:31:20.362Z,40.79
2022-09-06T16:33:49.073Z,40.65
2022-09-06T16:36:16.362Z,40.33
2022-09-06T16:38:44.116Z,40.36
2022-09-06T16:41:11.075Z,41.02
2022-09-06T16:43:37.763Z,41.84
2022-09-06T16:46:05.035Z,42.63
2022-09-06T16:48:32.068Z,44.22
2022-09-06T16:51:07.798Z,46.23
2022-09-06T16:53:34.451Z,46.13
2022-09-06T16:56:03.999Z,46.61
2022-09-06T16:58:31.394Z,47.12
2022-09-06T17:00:58.476Z,49.40
2022-09-06T17:03:25.966Z,50.30
2022-09-06T17:05:53.379Z,51.29
2022-09-06T17:08:20.421Z,49.75
2022-09-06T17:10:47.493Z,50.23
2022-09-06T17:13:14.846Z,50.77
2022-09-06T17:16:00.110Z,52.88
2022-09-06T17:18:26.944Z,52.30
2022-09-06T17:21:01.113Z,52.16
2022-09-06T17:23:28.427Z,52.20
2022-09-06T17:25:55.251Z,53.28
2022-09-06T17:28:22.746Z,54.04
2022-09-06T17:30:51.209Z,57.36
2022-09-06T17:33:18.430Z,59.52
2022-09-06T17:35:46.177Z,59.20
2022-09-06T17:38:14.076Z,59.99
2022-09-06T17:40:41.085Z,60.43
2022-09-06T17:43:08.068Z,60.66
2022-09-06T17:45:45.517Z,64.83
2022-09-06T17:48:12.510Z,65.62
2022-09-06T17:50:41.673Z,65.64
2022-09-06T17:53:08.625Z,66.69
2022-09-06T17:55:40.609Z,68.49
2022-09-06T17:58:09.168Z,68.04
2022-09-06T18:00:40.596Z,68.29
2022-09-06T18:03:08.782Z,68.61
2022-09-06T18:05:39.070Z,68.27
2022-09-06T18:08:09.682Z,69.33
2022-09-06T18:10:39.071Z,70.72
2022-09-06T18:13:07.007Z,70.63
2022-09-06T18:15:39.795Z,71.10
2022-09-06T18:18:07.057Z,72.27
2022-09-06T18:20:34.325Z,72.82
2022-09-06T18:23:01.531Z,73.92
2022-09-06T18:25:29.288Z,75.54
2022-09-06T18:27:56.170Z,75.39
2022-09-06T18:30:23.412Z,74.49
2022-09-06T18:32:51.380Z,77.34
2022-09-06T18:35:18.574Z,77.77
2022-09-06T18:37:45.743Z,79.25
2022-09-06T18:40:12.898Z,80.30
2022-09-06T18:42:44.780Z,79.85
2022-09-06T18:45:12.000Z,78.19
2022-09-06T18:47:39.183Z,77.57
2022-09-06T18:50:08.491Z,82.04
2022-09-06T18:52:35.806Z,82.65
2022-09-06T18:55:03.237Z,83.08
2022-09-06T18:57:31.105Z,83.31
2022-09-06T18:59:58.599Z,83.18
2022-09-06T19:02:26.930Z,84.62
2022-09-06T19:04:56.398Z,84.91
2022-09-06T19:07:23.480Z,84.79
2022-09-06T19:09:50.967Z,83.90
2022-09-06T19:12:17.810Z,82.54
2022-09-06T19:14:44.872Z,84.70
2022-09-06T19:17:12.084Z,83.90
2022-09-06T19:19:38.961Z,84.43
2022-09-06T19:22:06.206Z,84.71
2022-09-06T19:24:33.599Z,84.85
2022-09-06T19:27:01.894Z,86.53
2022-09-06T19:29:29.107Z,87.96
2022-09-06T19:31:56.379Z,87.86
2022-09-06T19:34:23.918Z,87.44
2022-09-06T19:36:55.642Z,88.17
2022-09-06T19:39:23.025Z,89.33
2022-09-06T19:41:50.925Z,91.01
2022-09-06T19:44:18.242Z,91.71
2022-09-06T19:46:47.557Z,90.83
2022-09-06T19:49:20.019Z,92.18
2022-09-06T19:51:49.300Z,93.02
2022-09-06T19:54:17.384Z,91.58
2022-09-06T19:56:45.042Z,91.30
2022-09-06T19:59:13.494Z,91.96
2022-09-06T20:01:42.508Z,90.86
2022-09-06T20:04:11.542Z,90.86
2022-09-06T20:06:39.041Z,87.25
2022-09-06T20:09:08.433Z,89.51
2022-09-06T20:11:37.263Z,89.04
2022-09-06T20:14:04.921Z,89.89
2022-09-06T20:16:32.531Z,91.37
2022-09-06T20:19:00.790Z,93.37
2022-09-06T20:21:29.505Z,94.85
2022-09-06T20:23:58.343Z,96.18
2022-09-06T20:26:28.285Z,98.33
2022-09-06T20:28:59.846Z,97.01
2022-09-06T20:31:29.384Z,96.27
2022-09-06T20:33:58.769Z,94.73
2022-09-06T20:36:26.114Z,94.50
2022-09-06T20:38:53.352Z,92.85
2022-09-06T20:41:24.378Z,93.98
2022-09-06T20:43:53.505Z,93.93
2022-09-06T20:46:22.657Z,94.41
2022-09-06T20:48:50.868Z,95.77
2022-09-06T20:51:23.690Z,96.31
2022-09-06T20:53:58.488Z,95.83
2022-09-06T20:56:38.309Z,96.11
2022-09-06T20:59:10.714Z,96.75
2022-09-06T21:01:41.974Z,97.29
2022-09-06T21:04:09.795Z,98.70
2022-09-06T21:06:38.144Z,98.85
2022-09-06T21:09:10.647Z,99.07
2022-09-06T21:11:38.224Z,96.12
2022-09-06T21:14:05.676Z,96.01
2022-09-06T21:16:33.211Z,96.87
2022-09-06T21:19:03.130Z,98.21
2022-09-06T21:21:32.431Z,98.33
2022-09-06T21:24:03.995Z,98.92
2022-09-06T21:26:31.106Z,98.99
2022-09-06T21:28:57.986Z,99.04
2022-09-06T21:31:30.037Z,98.11
2022-09-06T21:33:59.245Z,97.55
2022-09-06T21:36:31.731Z,97.94
2022-09-06T21:39:01.193Z,96.96
2022-09-06T21:41:29.177Z,97.43
2022-09-06T21:44:00.617Z,96.60
2022-09-06T21:46:32.875Z,97.43
2022-09-06T21:49:07.252Z,97.17
2022-09-06T21:51:34.945Z,98.77
2022-09-06T21:54:04.553Z,98.71
2022-09-06T21:56:36.167Z,98.42
2022-09-06T21:59:04.154Z,96.90
2022-09-06T22:01:34.712Z,96.98
2022-09-06T22:04:02.557Z,97.30
2022-09-06T22:06:31.601Z,97.01
2022-09-06T22:09:00.569Z,98.78
2022-09-06T22:11:32.737Z,97.88
2022-09-06T22:14:01.973Z,98.46
2022-09-06T22:16:30.343Z,98.64
2022-09-06T22:18:57.496Z,97.80
2022-09-06T22:21:24.943Z,97.42
2022-09-06T22:23:57.288Z,95.74
2022-09-06T22:26:26.600Z,96.04
2022-09-06T22:29:01.757Z,96.15
2022-09-06T22:31:30.513Z,96.07
2022-09-06T22:33:58.136Z,96.29
2022-09-06T22:36:26.414Z,95.92
2022-09-06T22:38:57.493Z,94.59
2022-09-06T22:41:29.435Z,95.63
2022-09-06T22:43:56.670Z,95.63
2022-09-06T22:46:23.712Z,96.18
2022-09-06T22:48:50.606Z,96.63
2022-09-06T22:51:17.558Z,95.78
2022-09-06T22:53:44.565Z,96.01
2022-09-06T22:56:11.340Z,96.12
2022-09-06T22:58:38.211Z,95.08
2022-09-06T23:01:13.357Z,95.88
2022-09-06T23:03:42.024Z,96.70
2022-09-06T23:06:09.016Z,97.61
2022-09-06T23:08:38.259Z,98.78
2022-09-06T23:11:07.915Z,99.60
2022-09-06T23:13:35.417Z,99.66
2022-09-06T23:16:06.963Z,100.00
2022-09-06T23:18:34.243Z,100.00
2022-09-06T23:21:08.742Z,100.00
2022-09-06T23:23:36.810Z,100.00
2022-09-06T23:26:05.274Z,100.00
2022-09-06T23:28:32.116Z,100.00
2022-09-06T23:31:02.011Z,100.00
2022-09-06T23:33:29.396Z,100.00
2022-09-06T23:35:56.154Z,100.00
2022-09-06T23:38:23.145Z,100.00
2022-09-06T23:40:49.909Z,100.00
2022-09-06T23:43:16.695Z,100.00
2022-09-06T23:45:43.480Z,100.00
2022-09-06T23:48:10.230Z,100.00
2022-09-06T23:50:37.124Z,100.00
2022-09-06T23:53:04.117Z,100.00
2022-09-06T23:55:30.890Z,100.00
2022-09-06T23:57:57.651Z,100.00
